sensor_id;sensor_type;location;lat;lon;timestamp;P1;durP1;ratioP1;P2;durP2;ratioP2
65835;SDS011;52595;51.608;7.216;2023-10-08T00:02:24;8.32;;;3.90;;
65835;SDS011;52595;51.608;7.216;2023-10-08T00:04:50;9.27;;;3.92;;
65835;SDS011;52595;51.608;7.216;2023-10-08T00:07:20;10.13;;;4.20;;
65835;SDS011;52595;51.608;7.216;2023-10-08T00:09:49;10.00;;;4.78;;
65835;SDS011;52595;51.608;7.216;2023-10-08T00:12:16;8.13;;;4.32;;
65835;SDS011;52595;51.608;7.216;2023-10-08T00:14:42;8.55;;;4.22;;
65835;SDS011;52595;51.608;7.216;2023-10-08T00:17:14;7.95;;;4.05;;
65835;SDS011;52595;51.608;7.216;2023-10-08T00:19:41;9.98;;;4.47;;
65835;SDS011;52595;51.608;7.216;2023-10-08T00:22:09;11.40;;;4.57;;
65835;SDS011;52595;51.608;7.216;2023-10-08T00:24:36;9.45;;;4.45;;
65835;SDS011;52595;51.608;7.216;2023-10-08T00:27:03;10.73;;;4.80;;
65835;SDS011;52595;51.608;7.216;2023-10-08T00:29:31;8.43;;;4.30;;
65835;SDS011;52595;51.608;7.216;2023-10-08T00:31:57;9.90;;;4.65;;
65835;SDS011;52595;51.608;7.216;2023-10-08T00:34:23;9.95;;;4.30;;
65835;SDS011;52595;51.608;7.216;2023-10-08T00:36:49;10.73;;;4.90;;
65835;SDS011;52595;51.608;7.216;2023-10-08T00:39:15;10.38;;;4.20;;
65835;SDS011;52595;51.608;7.216;2023-10-08T00:41:47;9.18;;;4.40;;
65835;SDS011;52595;51.608;7.216;2023-10-08T00:44:14;8.70;;;4.32;;
65835;SDS011;52595;51.608;7.216;2023-10-08T00:46:54;8.75;;;4.28;;
65835;SDS011;52595;51.608;7.216;2023-10-08T00:49:25;15.63;;;4.75;;
65835;SDS011;52595;51.608;7.216;2023-10-08T00:52:00;11.70;;;4.55;;
65835;SDS011;52595;51.608;7.216;2023-10-08T00:54:45;9.45;;;4.55;;
65835;SDS011;52595;51.608;7.216;2023-10-08T00:57:29;8.85;;;4.45;;
65835;SDS011;52595;51.608;7.216;2023-10-08T00:59:55;9.65;;;4.30;;
65835;SDS011;52595;51.608;7.216;2023-10-08T01:02:27;10.38;;;4.40;;
65835;SDS011;52595;51.608;7.216;2023-10-08T01:04:56;8.93;;;4.13;;
65835;SDS011;52595;51.608;7.216;2023-10-08T01:07:22;12.85;;;4.75;;
65835;SDS011;52595;51.608;7.216;2023-10-08T01:09:52;9.88;;;4.40;;
65835;SDS011;52595;51.608;7.216;2023-10-08T01:12:24;9.05;;;4.60;;
65835;SDS011;52595;51.608;7.216;2023-10-08T01:14:58;9.70;;;4.25;;
65835;SDS011;52595;51.608;7.216;2023-10-08T01:17:41;9.32;;;4.32;;
65835;SDS011;52595;51.608;7.216;2023-10-08T01:20:19;10.85;;;4.18;;
65835;SDS011;52595;51.608;7.216;2023-10-08T01:22:57;9.98;;;4.63;;
65835;SDS011;52595;51.608;7.216;2023-10-08T01:25:23;9.57;;;4.47;;
65835;SDS011;52595;51.608;7.216;2023-10-08T01:27:58;10.93;;;4.30;;
65835;SDS011;52595;51.608;7.216;2023-10-08T01:30:33;10.50;;;4.35;;
65835;SDS011;52595;51.608;7.216;2023-10-08T01:33:05;8.75;;;4.25;;
65835;SDS011;52595;51.608;7.216;2023-10-08T01:35:34;10.18;;;4.13;;
65835;SDS011;52595;51.608;7.216;2023-10-08T01:38:00;9.18;;;4.63;;
65835;SDS011;52595;51.608;7.216;2023-10-08T01:40:26;11.07;;;4.28;;
65835;SDS011;52595;51.608;7.216;2023-10-08T01:42:52;11.60;;;4.53;;
65835;SDS011;52595;51.608;7.216;2023-10-08T01:45:18;10.60;;;4.70;;
65835;SDS011;52595;51.608;7.216;2023-10-08T01:47:44;12.13;;;4.68;;
65835;SDS011;52595;51.608;7.216;2023-10-08T01:50:10;11.13;;;4.03;;
65835;SDS011;52595;51.608;7.216;2023-10-08T01:52:56;11.85;;;4.63;;
65835;SDS011;52595;51.608;7.216;2023-10-08T01:55:21;9.82;;;4.55;;
65835;SDS011;52595;51.608;7.216;2023-10-08T01:57:48;10.18;;;4.20;;
65835;SDS011;52595;51.608;7.216;2023-10-08T02:00:18;13.60;;;4.20;;
65835;SDS011;52595;51.608;7.216;2023-10-08T02:02:48;10.55;;;4.85;;
65835;SDS011;52595;51.608;7.216;2023-10-08T02:05:15;11.35;;;4.40;;
65835;SDS011;52595;51.608;7.216;2023-10-08T02:07:46;11.20;;;4.78;;
65835;SDS011;52595;51.608;7.216;2023-10-08T02:10:12;10.18;;;4.40;;
65835;SDS011;52595;51.608;7.216;2023-10-08T02:12:41;10.20;;;4.25;;
65835;SDS011;52595;51.608;7.216;2023-10-08T02:15:07;9.60;;;4.30;;
65835;SDS011;52595;51.608;7.216;2023-10-08T02:17:33;8.60;;;4.28;;
65835;SDS011;52595;51.608;7.216;2023-10-08T02:19:59;10.45;;;4.30;;
65835;SDS011;52595;51.608;7.216;2023-10-08T02:22:25;13.05;;;4.38;;
65835;SDS011;52595;51.608;7.216;2023-10-08T02:24:50;9.00;;;4.25;;
65835;SDS011;52595;51.608;7.216;2023-10-08T02:27:18;11.10;;;5.00;;
65835;SDS011;52595;51.608;7.216;2023-10-08T02:29:47;12.40;;;4.43;;
65835;SDS011;52595;51.608;7.216;2023-10-08T02:32:13;11.38;;;4.28;;
65835;SDS011;52595;51.608;7.216;2023-10-08T02:34:38;8.73;;;4.13;;
65835;SDS011;52595;51.608;7.216;2023-10-08T02:37:04;12.23;;;4.65;;
65835;SDS011;52595;51.608;7.216;2023-10-08T02:39:29;11.20;;;4.88;;
65835;SDS011;52595;51.608;7.216;2023-10-08T02:41:57;13.13;;;4.75;;
65835;SDS011;52595;51.608;7.216;2023-10-08T02:44:26;13.75;;;5.13;;
65835;SDS011;52595;51.608;7.216;2023-10-08T02:46:52;12.35;;;4.80;;
65835;SDS011;52595;51.608;7.216;2023-10-08T02:49:20;9.45;;;5.30;;
65835;SDS011;52595;51.608;7.216;2023-10-08T02:51:48;11.45;;;5.28;;
65835;SDS011;52595;51.608;7.216;2023-10-08T02:54:16;9.00;;;5.15;;
65835;SDS011;52595;51.608;7.216;2023-10-08T02:56:50;11.60;;;5.10;;
65835;SDS011;52595;51.608;7.216;2023-10-08T02:59:22;10.02;;;4.90;;
65835;SDS011;52595;51.608;7.216;2023-10-08T03:01:47;13.05;;;5.05;;
65835;SDS011;52595;51.608;7.216;2023-10-08T03:04:22;11.65;;;5.00;;
65835;SDS011;52595;51.608;7.216;2023-10-08T03:06:51;11.20;;;5.38;;
65835;SDS011;52595;51.608;7.216;2023-10-08T03:09:20;9.82;;;4.80;;
65835;SDS011;52595;51.608;7.216;2023-10-08T03:11:48;12.07;;;4.80;;
65835;SDS011;52595;51.608;7.216;2023-10-08T03:14:18;9.98;;;4.68;;
65835;SDS011;52595;51.608;7.216;2023-10-08T03:16:52;10.52;;;4.70;;
65835;SDS011;52595;51.608;7.216;2023-10-08T03:19:19;11.43;;;4.70;;
65835;SDS011;52595;51.608;7.216;2023-10-08T03:21:48;10.75;;;5.20;;
65835;SDS011;52595;51.608;7.216;2023-10-08T03:24:20;12.32;;;4.97;;
65835;SDS011;52595;51.608;7.216;2023-10-08T03:27:05;8.57;;;4.70;;
65835;SDS011;52595;51.608;7.216;2023-10-08T03:29:51;12.88;;;4.97;;
65835;SDS011;52595;51.608;7.216;2023-10-08T03:32:19;11.52;;;5.18;;
65835;SDS011;52595;51.608;7.216;2023-10-08T03:34:51;15.20;;;5.40;;
65835;SDS011;52595;51.608;7.216;2023-10-08T03:37:20;12.55;;;5.80;;
65835;SDS011;52595;51.608;7.216;2023-10-08T03:39:54;12.85;;;4.95;;
65835;SDS011;52595;51.608;7.216;2023-10-08T03:42:28;10.32;;;5.03;;
65835;SDS011;52595;51.608;7.216;2023-10-08T03:45:07;15.05;;;5.18;;
65835;SDS011;52595;51.608;7.216;2023-10-08T03:47:37;11.68;;;5.22;;
65835;SDS011;52595;51.608;7.216;2023-10-08T03:50:05;12.05;;;5.43;;
65835;SDS011;52595;51.608;7.216;2023-10-08T03:52:31;12.38;;;5.10;;
65835;SDS011;52595;51.608;7.216;2023-10-08T03:54:56;13.00;;;5.03;;
65835;SDS011;52595;51.608;7.216;2023-10-08T03:57:45;11.93;;;5.53;;
65835;SDS011;52595;51.608;7.216;2023-10-08T04:00:13;12.27;;;5.60;;
65835;SDS011;52595;51.608;7.216;2023-10-08T04:02:46;13.00;;;5.50;;
65835;SDS011;52595;51.608;7.216;2023-10-08T04:05:20;13.75;;;5.57;;
65835;SDS011;52595;51.608;7.216;2023-10-08T04:07:48;14.23;;;5.22;;
65835;SDS011;52595;51.608;7.216;2023-10-08T04:10:46;14.25;;;5.05;;
65835;SDS011;52595;51.608;7.216;2023-10-08T04:13:11;11.85;;;4.80;;
65835;SDS011;52595;51.608;7.216;2023-10-08T04:15:37;11.10;;;5.25;;
65835;SDS011;52595;51.608;7.216;2023-10-08T04:18:09;13.55;;;5.43;;
65835;SDS011;52595;51.608;7.216;2023-10-08T04:20:36;12.90;;;5.10;;
65835;SDS011;52595;51.608;7.216;2023-10-08T04:23:05;13.70;;;4.97;;
65835;SDS011;52595;51.608;7.216;2023-10-08T04:25:43;10.43;;;5.07;;
65835;SDS011;52595;51.608;7.216;2023-10-08T04:28:08;13.93;;;5.30;;
65835;SDS011;52595;51.608;7.216;2023-10-08T04:30:39;14.13;;;5.30;;
65835;SDS011;52595;51.608;7.216;2023-10-08T04:33:07;12.73;;;5.43;;
65835;SDS011;52595;51.608;7.216;2023-10-08T04:35:40;17.15;;;5.38;;
65835;SDS011;52595;51.608;7.216;2023-10-08T04:38:26;11.40;;;4.78;;
65835;SDS011;52595;51.608;7.216;2023-10-08T04:40:53;12.13;;;5.55;;
65835;SDS011;52595;51.608;7.216;2023-10-08T04:43:20;14.20;;;5.25;;
65835;SDS011;52595;51.608;7.216;2023-10-08T04:46:00;12.20;;;4.85;;
65835;SDS011;52595;51.608;7.216;2023-10-08T04:48:30;11.73;;;5.13;;
65835;SDS011;52595;51.608;7.216;2023-10-08T04:50:58;13.60;;;5.35;;
65835;SDS011;52595;51.608;7.216;2023-10-08T04:53:25;14.20;;;5.40;;
65835;SDS011;52595;51.608;7.216;2023-10-08T04:55:57;13.07;;;5.28;;
65835;SDS011;52595;51.608;7.216;2023-10-08T04:58:30;12.25;;;5.00;;
65835;SDS011;52595;51.608;7.216;2023-10-08T05:01:02;13.90;;;5.13;;
65835;SDS011;52595;51.608;7.216;2023-10-08T05:03:46;10.82;;;5.00;;
65835;SDS011;52595;51.608;7.216;2023-10-08T05:06:31;15.07;;;5.25;;
65835;SDS011;52595;51.608;7.216;2023-10-08T05:09:21;14.23;;;4.93;;
65835;SDS011;52595;51.608;7.216;2023-10-08T05:11:50;12.60;;;4.93;;
65835;SDS011;52595;51.608;7.216;2023-10-08T05:14:23;15.75;;;5.18;;
65835;SDS011;52595;51.608;7.216;2023-10-08T05:16:59;14.15;;;5.28;;
65835;SDS011;52595;51.608;7.216;2023-10-08T05:22:32;11.43;;;4.85;;
65835;SDS011;52595;51.608;7.216;2023-10-08T05:24:58;15.05;;;5.15;;
65835;SDS011;52595;51.608;7.216;2023-10-08T05:27:39;12.63;;;4.85;;
65835;SDS011;52595;51.608;7.216;2023-10-08T05:30:15;12.73;;;5.45;;
65835;SDS011;52595;51.608;7.216;2023-10-08T05:32:50;12.65;;;5.40;;
65835;SDS011;52595;51.608;7.216;2023-10-08T05:35:37;13.80;;;5.30;;
65835;SDS011;52595;51.608;7.216;2023-10-08T05:38:13;14.50;;;5.43;;
65835;SDS011;52595;51.608;7.216;2023-10-08T05:40:55;13.48;;;4.88;;
65835;SDS011;52595;51.608;7.216;2023-10-08T05:43:37;11.73;;;4.95;;
65835;SDS011;52595;51.608;7.216;2023-10-08T05:46:05;15.55;;;4.82;;
65835;SDS011;52595;51.608;7.216;2023-10-08T05:48:46;14.55;;;5.25;;
65835;SDS011;52595;51.608;7.216;2023-10-08T05:51:26;17.60;;;5.30;;
65835;SDS011;52595;51.608;7.216;2023-10-08T05:54:13;15.35;;;5.60;;
65835;SDS011;52595;51.608;7.216;2023-10-08T05:56:55;13.10;;;5.45;;
65835;SDS011;52595;51.608;7.216;2023-10-08T05:59:37;13.98;;;5.55;;
65835;SDS011;52595;51.608;7.216;2023-10-08T06:02:28;11.65;;;5.18;;
65835;SDS011;52595;51.608;7.216;2023-10-08T06:04:59;14.68;;;6.00;;
65835;SDS011;52595;51.608;7.216;2023-10-08T06:07:38;13.65;;;5.97;;
65835;SDS011;52595;51.608;7.216;2023-10-08T06:10:20;14.40;;;5.40;;
65835;SDS011;52595;51.608;7.216;2023-10-08T06:12:55;14.52;;;5.82;;
65835;SDS011;52595;51.608;7.216;2023-10-08T06:15:47;13.05;;;5.45;;
65835;SDS011;52595;51.608;7.216;2023-10-08T06:18:21;14.02;;;5.60;;
65835;SDS011;52595;51.608;7.216;2023-10-08T06:21:00;19.23;;;5.43;;
65835;SDS011;52595;51.608;7.216;2023-10-08T06:23:33;15.95;;;6.15;;
65835;SDS011;52595;51.608;7.216;2023-10-08T06:26:01;15.70;;;6.10;;
65835;SDS011;52595;51.608;7.216;2023-10-08T06:28:39;15.75;;;5.85;;
65835;SDS011;52595;51.608;7.216;2023-10-08T06:31:09;15.13;;;5.93;;
65835;SDS011;52595;51.608;7.216;2023-10-08T06:33:41;16.77;;;5.88;;
65835;SDS011;52595;51.608;7.216;2023-10-08T06:36:08;14.85;;;6.05;;
65835;SDS011;52595;51.608;7.216;2023-10-08T06:38:37;10.77;;;5.45;;
65835;SDS011;52595;51.608;7.216;2023-10-08T06:41:04;15.25;;;5.82;;
65835;SDS011;52595;51.608;7.216;2023-10-08T06:43:56;15.85;;;6.28;;
65835;SDS011;52595;51.608;7.216;2023-10-08T06:46:28;13.85;;;5.50;;
65835;SDS011;52595;51.608;7.216;2023-10-08T06:48:57;13.02;;;5.90;;
65835;SDS011;52595;51.608;7.216;2023-10-08T06:51:36;10.75;;;4.72;;
65835;SDS011;52595;51.608;7.216;2023-10-08T06:54:01;7.45;;;4.82;;
65835;SDS011;52595;51.608;7.216;2023-10-08T06:56:28;7.80;;;4.85;;
65835;SDS011;52595;51.608;7.216;2023-10-08T06:58:56;7.57;;;4.65;;
65835;SDS011;52595;51.608;7.216;2023-10-08T07:01:24;8.02;;;5.70;;
65835;SDS011;52595;51.608;7.216;2023-10-08T07:03:56;8.88;;;5.30;;
65835;SDS011;52595;51.608;7.216;2023-10-08T07:06:28;10.57;;;5.53;;
65835;SDS011;52595;51.608;7.216;2023-10-08T07:08:59;8.80;;;4.22;;
65835;SDS011;52595;51.608;7.216;2023-10-08T07:11:30;5.72;;;4.20;;
65835;SDS011;52595;51.608;7.216;2023-10-08T07:14:00;6.38;;;4.30;;
65835;SDS011;52595;51.608;7.216;2023-10-08T07:16:26;7.88;;;3.92;;
65835;SDS011;52595;51.608;7.216;2023-10-08T07:18:54;8.73;;;4.32;;
65835;SDS011;52595;51.608;7.216;2023-10-08T07:21:40;6.93;;;4.07;;
65835;SDS011;52595;51.608;7.216;2023-10-08T07:24:12;8.45;;;3.80;;
65835;SDS011;52595;51.608;7.216;2023-10-08T07:26:42;6.75;;;4.00;;
65835;SDS011;52595;51.608;7.216;2023-10-08T07:29:12;5.38;;;3.00;;
65835;SDS011;52595;51.608;7.216;2023-10-08T07:31:47;5.18;;;2.83;;
65835;SDS011;52595;51.608;7.216;2023-10-08T07:34:14;4.30;;;2.33;;
65835;SDS011;52595;51.608;7.216;2023-10-08T07:36:44;3.17;;;2.20;;
65835;SDS011;52595;51.608;7.216;2023-10-08T07:39:12;2.72;;;2.00;;
65835;SDS011;52595;51.608;7.216;2023-10-08T07:41:54;2.40;;;1.90;;
65835;SDS011;52595;51.608;7.216;2023-10-08T07:44:20;2.78;;;2.15;;
65835;SDS011;52595;51.608;7.216;2023-10-08T07:46:48;2.28;;;1.67;;
65835;SDS011;52595;51.608;7.216;2023-10-08T07:49:17;2.72;;;1.60;;
65835;SDS011;52595;51.608;7.216;2023-10-08T07:51:48;2.20;;;1.48;;
65835;SDS011;52595;51.608;7.216;2023-10-08T07:54:20;1.67;;;1.33;;
65835;SDS011;52595;51.608;7.216;2023-10-08T07:56:47;1.63;;;1.38;;
65835;SDS011;52595;51.608;7.216;2023-10-08T07:59:14;1.63;;;1.20;;
65835;SDS011;52595;51.608;7.216;2023-10-08T08:01:41;1.85;;;0.93;;
65835;SDS011;52595;51.608;7.216;2023-10-08T08:04:09;2.13;;;1.20;;
65835;SDS011;52595;51.608;7.216;2023-10-08T08:06:36;1.52;;;0.95;;
65835;SDS011;52595;51.608;7.216;2023-10-08T08:09:03;1.10;;;1.00;;
65835;SDS011;52595;51.608;7.216;2023-10-08T08:11:42;1.65;;;1.10;;
65835;SDS011;52595;51.608;7.216;2023-10-08T08:14:11;3.55;;;1.10;;
65835;SDS011;52595;51.608;7.216;2023-10-08T08:16:36;1.25;;;1.13;;
65835;SDS011;52595;51.608;7.216;2023-10-08T08:19:02;1.20;;;1.10;;
65835;SDS011;52595;51.608;7.216;2023-10-08T08:21:28;1.55;;;1.25;;
65835;SDS011;52595;51.608;7.216;2023-10-08T08:23:55;1.63;;;1.30;;
65835;SDS011;52595;51.608;7.216;2023-10-08T08:26:30;1.58;;;1.10;;
65835;SDS011;52595;51.608;7.216;2023-10-08T08:29:07;1.20;;;1.10;;
65835;SDS011;52595;51.608;7.216;2023-10-08T08:31:34;1.52;;;1.13;;
65835;SDS011;52595;51.608;7.216;2023-10-08T08:34:00;1.05;;;0.90;;
65835;SDS011;52595;51.608;7.216;2023-10-08T08:36:39;0.90;;;0.90;;
65835;SDS011;52595;51.608;7.216;2023-10-08T08:39:10;1.23;;;0.90;;
65835;SDS011;52595;51.608;7.216;2023-10-08T08:41:39;0.82;;;0.82;;
65835;SDS011;52595;51.608;7.216;2023-10-08T08:44:04;1.52;;;1.00;;
65835;SDS011;52595;51.608;7.216;2023-10-08T08:46:35;1.10;;;1.00;;
65835;SDS011;52595;51.608;7.216;2023-10-08T08:49:03;1.73;;;0.95;;
65835;SDS011;52595;51.608;7.216;2023-10-08T08:51:32;1.08;;;0.80;;
65835;SDS011;52595;51.608;7.216;2023-10-08T08:54:00;1.58;;;0.70;;
65835;SDS011;52595;51.608;7.216;2023-10-08T08:56:34;1.30;;;0.80;;
65835;SDS011;52595;51.608;7.216;2023-10-08T08:59:02;2.65;;;0.80;;
65835;SDS011;52595;51.608;7.216;2023-10-08T09:01:29;1.92;;;1.10;;
65835;SDS011;52595;51.608;7.216;2023-10-08T09:03:59;1.55;;;1.00;;
65835;SDS011;52595;51.608;7.216;2023-10-08T09:08:52;2.88;;;1.25;;
65835;SDS011;52595;51.608;7.216;2023-10-08T09:11:20;2.30;;;1.30;;
65835;SDS011;52595;51.608;7.216;2023-10-08T09:13:46;1.77;;;1.27;;
65835;SDS011;52595;51.608;7.216;2023-10-08T09:18:41;3.22;;;1.35;;
65835;SDS011;52595;51.608;7.216;2023-10-08T09:21:10;2.97;;;1.42;;
65835;SDS011;52595;51.608;7.216;2023-10-08T09:23:43;2.85;;;1.20;;
65835;SDS011;52595;51.608;7.216;2023-10-08T09:26:12;4.07;;;1.27;;
65835;SDS011;52595;51.608;7.216;2023-10-08T09:28:47;3.92;;;1.20;;
65835;SDS011;52595;51.608;7.216;2023-10-08T09:31:13;3.10;;;1.10;;
65835;SDS011;52595;51.608;7.216;2023-10-08T09:33:39;4.30;;;1.27;;
65835;SDS011;52595;51.608;7.216;2023-10-08T09:36:06;3.80;;;1.55;;
65835;SDS011;52595;51.608;7.216;2023-10-08T09:38:43;4.20;;;1.40;;
65835;SDS011;52595;51.608;7.216;2023-10-08T09:41:10;3.25;;;1.80;;
65835;SDS011;52595;51.608;7.216;2023-10-08T09:43:37;3.50;;;1.90;;
65835;SDS011;52595;51.608;7.216;2023-10-08T09:46:17;5.57;;;2.00;;
65835;SDS011;52595;51.608;7.216;2023-10-08T09:48:49;5.70;;;2.08;;
65835;SDS011;52595;51.608;7.216;2023-10-08T09:51:18;5.75;;;2.40;;
65835;SDS011;52595;51.608;7.216;2023-10-08T09:53:51;5.10;;;2.60;;
65835;SDS011;52595;51.608;7.216;2023-10-08T09:56:23;3.42;;;2.15;;
65835;SDS011;52595;51.608;7.216;2023-10-08T09:58:52;5.20;;;2.90;;
65835;SDS011;52595;51.608;7.216;2023-10-08T10:01:18;4.80;;;2.92;;
65835;SDS011;52595;51.608;7.216;2023-10-08T10:03:45;5.78;;;3.05;;
65835;SDS011;52595;51.608;7.216;2023-10-08T10:06:11;4.95;;;3.00;;
65835;SDS011;52595;51.608;7.216;2023-10-08T10:08:39;4.95;;;2.53;;
65835;SDS011;52595;51.608;7.216;2023-10-08T10:11:06;7.63;;;2.72;;
65835;SDS011;52595;51.608;7.216;2023-10-08T10:13:42;5.38;;;2.60;;
65835;SDS011;52595;51.608;7.216;2023-10-08T10:16:13;6.28;;;3.10;;
65835;SDS011;52595;51.608;7.216;2023-10-08T10:18:43;6.25;;;3.28;;
65835;SDS011;52595;51.608;7.216;2023-10-08T10:26:28;8.43;;;3.88;;
65835;SDS011;52595;51.608;7.216;2023-10-08T10:31:38;11.95;;;6.43;;
65835;SDS011;52595;51.608;7.216;2023-10-08T10:34:10;11.18;;;6.30;;
65835;SDS011;52595;51.608;7.216;2023-10-08T10:36:37;12.98;;;6.97;;
65835;SDS011;52595;51.608;7.216;2023-10-08T10:39:05;11.52;;;6.68;;
65835;SDS011;52595;51.608;7.216;2023-10-08T10:41:51;9.52;;;5.80;;
65835;SDS011;52595;51.608;7.216;2023-10-08T10:44:29;5.82;;;2.78;;
65835;SDS011;52595;51.608;7.216;2023-10-08T10:47:01;3.88;;;1.75;;
65835;SDS011;52595;51.608;7.216;2023-10-08T10:49:46;4.15;;;1.60;;
65835;SDS011;52595;51.608;7.216;2023-10-08T10:52:16;3.03;;;1.60;;
65835;SDS011;52595;51.608;7.216;2023-10-08T10:55:00;2.72;;;1.40;;
65835;SDS011;52595;51.608;7.216;2023-10-08T10:57:42;4.88;;;1.70;;
65835;SDS011;52595;51.608;7.216;2023-10-08T11:00:08;3.42;;;1.35;;
65835;SDS011;52595;51.608;7.216;2023-10-08T11:02:55;5.07;;;1.50;;
65835;SDS011;52595;51.608;7.216;2023-10-08T11:05:28;4.22;;;1.42;;
65835;SDS011;52595;51.608;7.216;2023-10-08T11:08:12;3.83;;;1.15;;
65835;SDS011;52595;51.608;7.216;2023-10-08T11:10:40;4.38;;;1.35;;
65835;SDS011;52595;51.608;7.216;2023-10-08T11:13:13;3.10;;;1.50;;
65835;SDS011;52595;51.608;7.216;2023-10-08T11:15:42;3.08;;;1.10;;
65835;SDS011;52595;51.608;7.216;2023-10-08T11:18:14;2.08;;;1.15;;
65835;SDS011;52595;51.608;7.216;2023-10-08T11:20:40;2.85;;;1.20;;
65835;SDS011;52595;51.608;7.216;2023-10-08T11:23:09;3.63;;;1.30;;
65835;SDS011;52595;51.608;7.216;2023-10-08T11:25:56;9.55;;;1.70;;
65835;SDS011;52595;51.608;7.216;2023-10-08T11:28:36;2.25;;;1.10;;
65835;SDS011;52595;51.608;7.216;2023-10-08T11:31:09;5.72;;;1.30;;
65835;SDS011;52595;51.608;7.216;2023-10-08T11:33:40;2.17;;;1.08;;
65835;SDS011;52595;51.608;7.216;2023-10-08T11:36:07;5.65;;;1.40;;
65835;SDS011;52595;51.608;7.216;2023-10-08T11:38:52;4.00;;;1.00;;
65835;SDS011;52595;51.608;7.216;2023-10-08T11:41:30;2.92;;;1.15;;
65835;SDS011;52595;51.608;7.216;2023-10-08T11:43:56;2.72;;;0.82;;
65835;SDS011;52595;51.608;7.216;2023-10-08T11:46:27;3.50;;;1.38;;
65835;SDS011;52595;51.608;7.216;2023-10-08T11:49:06;4.43;;;1.15;;
65835;SDS011;52595;51.608;7.216;2023-10-08T11:51:32;3.40;;;1.10;;
65835;SDS011;52595;51.608;7.216;2023-10-08T11:53:58;2.42;;;1.00;;
65835;SDS011;52595;51.608;7.216;2023-10-08T11:56:25;4.47;;;1.27;;
65835;SDS011;52595;51.608;7.216;2023-10-08T11:58:51;3.75;;;1.52;;
65835;SDS011;52595;51.608;7.216;2023-10-08T12:01:17;4.68;;;1.30;;
65835;SDS011;52595;51.608;7.216;2023-10-08T12:03:44;2.15;;;1.00;;
65835;SDS011;52595;51.608;7.216;2023-10-08T12:06:10;3.63;;;1.20;;
65835;SDS011;52595;51.608;7.216;2023-10-08T12:08:42;3.60;;;1.13;;
65835;SDS011;52595;51.608;7.216;2023-10-08T12:11:14;3.53;;;1.20;;
65835;SDS011;52595;51.608;7.216;2023-10-08T12:13:42;2.05;;;0.95;;
65835;SDS011;52595;51.608;7.216;2023-10-08T12:16:12;2.78;;;1.10;;
65835;SDS011;52595;51.608;7.216;2023-10-08T12:18:43;4.13;;;1.75;;
65835;SDS011;52595;51.608;7.216;2023-10-08T12:21:13;2.40;;;1.27;;
65835;SDS011;52595;51.608;7.216;2023-10-08T12:23:40;3.42;;;1.02;;
65835;SDS011;52595;51.608;7.216;2023-10-08T12:26:08;5.10;;;1.40;;
65835;SDS011;52595;51.608;7.216;2023-10-08T12:28:34;3.45;;;1.17;;
65835;SDS011;52595;51.608;7.216;2023-10-08T12:31:02;3.70;;;1.30;;
65835;SDS011;52595;51.608;7.216;2023-10-08T12:33:31;2.05;;;0.82;;
65835;SDS011;52595;51.608;7.216;2023-10-08T12:35:57;5.15;;;1.15;;
65835;SDS011;52595;51.608;7.216;2023-10-08T12:38:23;2.75;;;1.27;;
65835;SDS011;52595;51.608;7.216;2023-10-08T12:40:49;5.18;;;1.13;;
65835;SDS011;52595;51.608;7.216;2023-10-08T12:45:52;4.80;;;1.17;;
65835;SDS011;52595;51.608;7.216;2023-10-08T12:48:26;5.47;;;0.77;;
65835;SDS011;52595;51.608;7.216;2023-10-08T12:50:53;3.22;;;0.90;;
65835;SDS011;52595;51.608;7.216;2023-10-08T12:53:25;4.65;;;1.27;;
65835;SDS011;52595;51.608;7.216;2023-10-08T12:58:19;2.58;;;0.90;;
65835;SDS011;52595;51.608;7.216;2023-10-08T13:00:54;2.63;;;1.10;;
65835;SDS011;52595;51.608;7.216;2023-10-08T13:03:25;2.97;;;1.15;;
65835;SDS011;52595;51.608;7.216;2023-10-08T13:05:51;4.35;;;1.13;;
65835;SDS011;52595;51.608;7.216;2023-10-08T13:08:20;2.78;;;1.20;;
65835;SDS011;52595;51.608;7.216;2023-10-08T13:10:46;3.22;;;1.42;;
65835;SDS011;52595;51.608;7.216;2023-10-08T13:13:12;3.15;;;1.15;;
65835;SDS011;52595;51.608;7.216;2023-10-08T13:15:38;3.92;;;1.30;;
65835;SDS011;52595;51.608;7.216;2023-10-08T13:18:06;2.90;;;1.10;;
65835;SDS011;52595;51.608;7.216;2023-10-08T13:20:34;4.30;;;1.10;;
65835;SDS011;52595;51.608;7.216;2023-10-08T13:23:00;4.38;;;1.33;;
65835;SDS011;52595;51.608;7.216;2023-10-08T13:25:26;2.92;;;0.90;;
65835;SDS011;52595;51.608;7.216;2023-10-08T13:27:51;3.58;;;1.30;;
65835;SDS011;52595;51.608;7.216;2023-10-08T13:30:17;1.70;;;0.98;;
65835;SDS011;52595;51.608;7.216;2023-10-08T13:32:43;3.63;;;1.25;;
65835;SDS011;52595;51.608;7.216;2023-10-08T13:35:08;2.28;;;1.00;;
65835;SDS011;52595;51.608;7.216;2023-10-08T13:37:36;3.08;;;1.23;;
65835;SDS011;52595;51.608;7.216;2023-10-08T13:40:02;2.03;;;1.00;;
65835;SDS011;52595;51.608;7.216;2023-10-08T13:42:28;4.82;;;1.20;;
65835;SDS011;52595;51.608;7.216;2023-10-08T13:44:54;3.30;;;1.10;;
65835;SDS011;52595;51.608;7.216;2023-10-08T13:47:23;7.45;;;1.38;;
65835;SDS011;52595;51.608;7.216;2023-10-08T13:49:51;3.70;;;1.15;;
65835;SDS011;52595;51.608;7.216;2023-10-08T13:52:18;3.42;;;1.30;;
65835;SDS011;52595;51.608;7.216;2023-10-08T13:54:46;4.45;;;1.23;;
65835;SDS011;52595;51.608;7.216;2023-10-08T13:57:20;3.55;;;1.23;;
65835;SDS011;52595;51.608;7.216;2023-10-08T13:59:47;2.55;;;1.20;;
65835;SDS011;52595;51.608;7.216;2023-10-08T14:02:13;3.03;;;1.20;;
65835;SDS011;52595;51.608;7.216;2023-10-08T14:04:44;2.97;;;1.30;;
65835;SDS011;52595;51.608;7.216;2023-10-08T14:07:10;2.75;;;1.10;;
65835;SDS011;52595;51.608;7.216;2023-10-08T14:09:45;2.97;;;1.30;;
65835;SDS011;52595;51.608;7.216;2023-10-08T14:12:11;3.13;;;1.25;;
65835;SDS011;52595;51.608;7.216;2023-10-08T14:14:39;2.85;;;1.27;;
65835;SDS011;52595;51.608;7.216;2023-10-08T14:17:11;4.07;;;1.45;;
65835;SDS011;52595;51.608;7.216;2023-10-08T14:19:40;3.38;;;1.40;;
65835;SDS011;52595;51.608;7.216;2023-10-08T14:22:24;3.25;;;1.63;;
65835;SDS011;52595;51.608;7.216;2023-10-08T14:24:50;2.28;;;1.23;;
65835;SDS011;52595;51.608;7.216;2023-10-08T14:27:26;4.20;;;1.40;;
65835;SDS011;52595;51.608;7.216;2023-10-08T14:30:05;4.45;;;1.50;;
65835;SDS011;52595;51.608;7.216;2023-10-08T14:32:36;5.57;;;1.50;;
65835;SDS011;52595;51.608;7.216;2023-10-08T14:35:02;4.40;;;1.48;;
65835;SDS011;52595;51.608;7.216;2023-10-08T14:37:46;4.05;;;1.25;;
65835;SDS011;52595;51.608;7.216;2023-10-08T14:40:30;4.43;;;1.33;;
65835;SDS011;52595;51.608;7.216;2023-10-08T14:43:14;2.58;;;1.30;;
65835;SDS011;52595;51.608;7.216;2023-10-08T14:45:40;4.38;;;1.33;;
65835;SDS011;52595;51.608;7.216;2023-10-08T14:48:06;4.70;;;1.27;;
65835;SDS011;52595;51.608;7.216;2023-10-08T14:50:36;2.67;;;1.50;;
65835;SDS011;52595;51.608;7.216;2023-10-08T14:53:04;3.45;;;1.65;;
65835;SDS011;52595;51.608;7.216;2023-10-08T14:55:30;2.35;;;1.42;;
65835;SDS011;52595;51.608;7.216;2023-10-08T14:57:59;2.78;;;1.38;;
65835;SDS011;52595;51.608;7.216;2023-10-08T15:00:31;3.25;;;1.40;;
65835;SDS011;52595;51.608;7.216;2023-10-08T15:02:56;3.10;;;1.30;;
65835;SDS011;52595;51.608;7.216;2023-10-08T15:05:23;4.63;;;1.90;;
65835;SDS011;52595;51.608;7.216;2023-10-08T15:07:51;3.75;;;1.50;;
65835;SDS011;52595;51.608;7.216;2023-10-08T15:10:17;4.68;;;1.60;;
65835;SDS011;52595;51.608;7.216;2023-10-08T15:12:43;4.25;;;1.60;;
65835;SDS011;52595;51.608;7.216;2023-10-08T15:15:09;2.67;;;1.50;;
65835;SDS011;52595;51.608;7.216;2023-10-08T15:17:41;3.72;;;1.50;;
65835;SDS011;52595;51.608;7.216;2023-10-08T15:20:08;2.33;;;1.40;;
65835;SDS011;52595;51.608;7.216;2023-10-08T15:22:39;4.22;;;1.67;;
65835;SDS011;52595;51.608;7.216;2023-10-08T15:25:11;4.53;;;1.50;;
65835;SDS011;52595;51.608;7.216;2023-10-08T15:27:37;3.92;;;1.50;;